createdAt,value
2017-04-15T00:00:11.611Z,0
2017-04-15T00:01:24.167Z,0
2017-04-15T00:02:36.687Z,0
2017-04-15T00:03:49.230Z,0
2017-04-15T00:05:01.759Z,0
2017-04-15T00:06:14.597Z,0
2017-04-15T00:07:27.009Z,0
2017-04-15T00:08:39.606Z,0
2017-04-15T00:09:51.851Z,0
2017-04-15T00:11:04.372Z,0
2017-04-15T00:12:16.617Z,0
2017-04-15T00:13:28.875Z,0
2017-04-15T00:14:41.418Z,0
2017-04-15T00:15:53.959Z,0
2017-04-15T00:17:06.513Z,0
2017-04-15T00:18:19.034Z,0
2017-04-15T00:19:31.580Z,0
2017-04-15T00:20:43.796Z,0
2017-04-15T00:21:56.322Z,0
2017-04-15T00:23:09.114Z,0
2017-04-15T00:24:21.684Z,0
2017-04-15T00:25:34.183Z,0
2017-04-15T00:26:46.421Z,0
2017-04-15T00:27:58.951Z,0
2017-04-15T00:29:11.471Z,0
2017-04-15T00:30:24.007Z,0
2017-04-15T00:31:36.538Z,0
2017-04-15T00:32:49.074Z,0
2017-04-15T00:34:01.602Z,0
2017-04-15T00:35:14.100Z,0
2017-04-15T00:36:26.622Z,0
2017-04-15T00:37:39.193Z,0
2017-04-15T00:38:51.714Z,0
2017-04-15T00:40:04.423Z,0
2017-04-15T00:41:16.647Z,0
2017-04-15T00:42:29.169Z,0
2017-04-15T00:43:41.694Z,0
2017-04-15T00:44:53.918Z,0
2017-04-15T00:46:06.453Z,0
2017-04-15T00:47:19.030Z,0
2017-04-15T00:48:31.556Z,0
2017-04-15T00:49:44.048Z,0
2017-04-15T00:50:56.597Z,0
2017-04-15T00:52:09.136Z,0
2017-04-15T00:53:21.761Z,0
2017-04-15T00:54:34.350Z,0
2017-04-15T00:55:46.886Z,0
2017-04-15T00:56:59.424Z,0
2017-04-15T00:58:11.699Z,0
2017-04-15T00:59:24.257Z,0
2017-04-15T01:00:36.786Z,0
2017-04-15T01:01:49.003Z,0
2017-04-15T01:03:01.558Z,0
2017-04-15T01:04:14.117Z,0
2017-04-15T01:05:26.641Z,0
2017-04-15T01:06:39.158Z,0
2017-04-15T01:07:51.388Z,0
2017-04-15T01:09:03.927Z,0
2017-04-15T01:10:16.557Z,0
2017-04-15T01:11:29.421Z,0
2017-04-15T01:12:41.970Z,0
2017-04-15T01:13:54.497Z,0
2017-04-15T01:15:07.018Z,0
2017-04-15T01:16:19.235Z,0
2017-04-15T01:17:32.013Z,0
2017-04-15T01:18:44.550Z,0
2017-04-15T01:19:57.088Z,0
2017-04-15T01:21:09.317Z,0
2017-04-15T01:22:21.855Z,0
2017-04-15T01:23:34.405Z,0
2017-04-15T01:24:46.947Z,0
2017-04-15T01:25:59.175Z,0
2017-04-15T01:27:11.725Z,0
2017-04-15T01:28:24.296Z,0
2017-04-15T01:29:36.817Z,0
2017-04-15T01:30:49.038Z,0
2017-04-15T01:32:01.558Z,0
2017-04-15T01:33:14.106Z,0
2017-04-15T01:34:26.640Z,0
2017-04-15T01:35:39.143Z,0
2017-04-15T01:36:51.659Z,0
2017-04-15T01:38:04.188Z,0
2017-04-15T01:39:16.722Z,0
2017-04-15T01:40:29.252Z,0
2017-04-15T01:41:41.775Z,0
2017-04-15T01:42:54.436Z,0
2017-04-15T01:44:06.963Z,0
2017-04-15T01:45:19.460Z,0
2017-04-15T01:46:31.986Z,0
2017-04-15T01:47:44.546Z,0
2017-04-15T01:48:56.776Z,0
2017-04-15T01:50:08.715Z,0
2017-04-15T01:51:20.931Z,0
2017-04-15T01:52:33.460Z,0
2017-04-15T01:53:45.981Z,0
2017-04-15T01:54:58.533Z,0
2017-04-15T01:56:11.078Z,0
2017-04-15T01:57:23.595Z,0
2017-04-15T01:58:35.815Z,0
2017-04-15T01:59:48.029Z,0
2017-04-15T02:01:00.564Z,0
2017-04-15T02:02:13.078Z,0
2017-04-15T02:03:25.599Z,0
2017-04-15T02:04:38.120Z,0
2017-04-15T02:05:50.645Z,0
2017-04-15T02:07:02.868Z,0
2017-04-15T02:08:15.427Z,0
2017-04-15T02:09:27.959Z,0
2017-04-15T02:10:40.522Z,0
2017-04-15T02:11:53.300Z,0
2017-04-15T02:13:05.845Z,0
2017-04-15T02:14:18.437Z,0
2017-04-15T02:15:31.029Z,0
2017-04-15T02:16:43.571Z,0
2017-04-15T02:17:56.092Z,0
2017-04-15T02:19:08.321Z,0
2017-04-15T02:20:20.859Z,0
2017-04-15T02:21:33.429Z,0
2017-04-15T02:22:45.958Z,0
2017-04-15T02:23:58.201Z,0
2017-04-15T02:25:10.725Z,0
2017-04-15T02:26:23.239Z,0
2017-04-15T02:27:35.760Z,0
2017-04-15T02:28:48.330Z,0
2017-04-15T02:30:00.263Z,0
2017-04-15T02:31:12.946Z,0
2017-04-15T02:32:25.479Z,0
2017-04-15T02:33:38.317Z,0
2017-04-15T02:34:50.837Z,0
2017-04-15T02:36:03.369Z,0
2017-04-15T02:37:15.890Z,0
2017-04-15T02:38:28.434Z,0
2017-04-15T02:39:40.675Z,0
2017-04-15T02:40:53.178Z,0
2017-04-15T02:42:05.410Z,0
2017-04-15T02:43:17.639Z,0
2017-04-15T02:44:30.194Z,0
2017-04-15T02:45:43.059Z,0
2017-04-15T02:46:55.794Z,0
2017-04-15T02:48:08.326Z,0
2017-04-15T02:49:20.836Z,0
2017-04-15T02:50:33.342Z,0
2017-04-15T02:51:45.859Z,0
2017-04-15T02:52:58.085Z,0
2017-04-15T02:54:10.322Z,0
2017-04-15T02:55:22.865Z,0
2017-04-15T02:56:35.371Z,0
2017-04-15T02:57:47.893Z,0
2017-04-15T02:59:00.111Z,0
2017-04-15T03:00:12.334Z,0
2017-04-15T03:01:24.527Z,0
2017-04-15T03:02:37.104Z,0
2017-04-15T03:03:49.794Z,0
2017-04-15T03:05:02.310Z,0
2017-04-15T03:06:15.131Z,0
2017-04-15T03:07:27.384Z,0
2017-04-15T03:08:39.607Z,0
2017-04-15T03:09:52.130Z,0
2017-04-15T03:11:04.695Z,0
2017-04-15T03:12:17.208Z,0
2017-04-15T03:13:29.720Z,0
2017-04-15T03:14:42.250Z,0
2017-04-15T03:15:54.755Z,0
2017-04-15T03:17:07.254Z,0
2017-04-15T03:18:19.487Z,0
2017-04-15T03:19:32.116Z,0
2017-04-15T03:20:44.616Z,0
2017-04-15T03:21:56.834Z,0
2017-04-15T03:23:09.380Z,0
2017-04-15T03:24:21.893Z,0
2017-04-15T03:25:34.402Z,0
2017-04-15T03:26:46.944Z,0
2017-04-15T03:27:59.483Z,0
2017-04-15T03:29:12.012Z,0
2017-04-15T03:30:24.555Z,0
2017-04-15T03:31:37.067Z,0
2017-04-15T03:32:49.599Z,0
2017-04-15T03:34:02.114Z,0
2017-04-15T03:35:14.612Z,0
2017-04-15T03:36:26.837Z,0
2017-04-15T03:37:39.359Z,0
2017-04-15T03:38:52.215Z,0
2017-04-15T03:40:04.740Z,0
2017-04-15T03:41:17.267Z,0
2017-04-15T03:42:29.791Z,0
2017-04-15T03:43:42.564Z,0
2017-04-15T03:44:55.128Z,0
2017-04-15T03:46:07.683Z,0
2017-04-15T03:47:20.226Z,0
2017-04-15T03:48:32.762Z,0
2017-04-15T03:49:45.288Z,0
2017-04-15T03:50:57.812Z,0
2017-04-15T03:52:10.051Z,0
2017-04-15T03:53:22.596Z,0
2017-04-15T03:54:35.226Z,0
2017-04-15T03:55:47.763Z,0
2017-04-15T03:57:00.281Z,0
2017-04-15T03:58:12.811Z,0
2017-04-15T03:59:25.334Z,5
2017-04-15T04:00:37.594Z,5
2017-04-15T04:01:50.119Z,5
2017-04-15T04:03:02.646Z,5
2017-04-15T04:04:14.842Z,5
2017-04-15T04:05:27.336Z,10
2017-04-15T04:06:39.858Z,10
2017-04-15T04:07:52.402Z,10
2017-04-15T04:09:04.928Z,10
2017-04-15T04:10:17.498Z,15
2017-04-15T04:11:30.021Z,15
2017-04-15T04:12:42.792Z,20
2017-04-15T04:13:55.309Z,20
2017-04-15T04:15:07.527Z,20
2017-04-15T04:16:20.028Z,25
2017-04-15T04:17:32.530Z,25
2017-04-15T04:18:45.068Z,30
2017-04-15T04:19:57.011Z,30
2017-04-15T04:21:09.249Z,35
2017-04-15T04:22:21.755Z,35
2017-04-15T04:23:33.973Z,40
2017-04-15T04:24:46.496Z,45
2017-04-15T04:25:59.011Z,45
2017-04-15T04:27:11.537Z,50
2017-04-15T04:28:24.053Z,55
2017-04-15T04:29:36.209Z,55
2017-04-15T04:30:48.724Z,60
2017-04-15T04:32:00.921Z,65
2017-04-15T04:33:13.419Z,70
2017-04-15T04:34:25.934Z,75
2017-04-15T04:35:38.475Z,75
2017-04-15T04:36:50.996Z,80
2017-04-15T04:38:03.793Z,80
2017-04-15T04:39:16.323Z,80
2017-04-15T04:40:28.863Z,85
2017-04-15T04:41:41.407Z,90
2017-04-15T04:42:53.954Z,90
2017-04-15T04:44:06.215Z,95
2017-04-15T04:45:18.743Z,100
2017-04-15T04:46:31.225Z,105
2017-04-15T04:47:43.746Z,115
2017-04-15T04:48:55.990Z,120
2017-04-15T04:50:08.234Z,130
2017-04-15T04:51:20.747Z,135
2017-04-15T04:52:33.301Z,145
2017-04-15T04:53:45.846Z,150
2017-04-15T04:54:58.389Z,155
2017-04-15T04:56:10.891Z,155
2017-04-15T04:57:23.402Z,160
2017-04-15T04:58:35.930Z,165
2017-04-15T04:59:48.501Z,175
2017-04-15T05:01:01.033Z,180
2017-04-15T05:02:13.254Z,185
2017-04-15T05:03:25.957Z,190
2017-04-15T05:04:38.309Z,190
2017-04-15T05:05:51.176Z,190
2017-04-15T05:07:03.705Z,190
2017-04-15T05:08:15.927Z,190
2017-04-15T05:09:28.462Z,185
2017-04-15T05:10:40.968Z,185
2017-04-15T05:11:53.488Z,190
2017-04-15T05:13:06.033Z,190
2017-04-15T05:14:18.562Z,195
2017-04-15T05:15:30.823Z,205
2017-04-15T05:16:43.361Z,220
2017-04-15T05:17:55.887Z,235
2017-04-15T05:19:08.439Z,240
2017-04-15T05:20:20.680Z,245
2017-04-15T05:21:33.030Z,245
2017-04-15T05:22:45.773Z,240
2017-04-15T05:23:57.999Z,235
2017-04-15T05:25:10.715Z,230
2017-04-15T05:26:23.241Z,230
2017-04-15T05:27:35.784Z,235
2017-04-15T05:28:48.332Z,240
2017-04-15T05:30:00.852Z,245
2017-04-15T05:31:13.077Z,250
2017-04-15T05:32:25.595Z,255
2017-04-15T05:33:38.116Z,265
2017-04-15T05:34:50.635Z,275
2017-04-15T05:36:02.859Z,270
2017-04-15T05:37:15.382Z,265
2017-04-15T05:38:28.213Z,260
2017-04-15T05:39:40.745Z,255
2017-04-15T05:40:53.254Z,245
2017-04-15T05:42:05.776Z,235
2017-04-15T05:43:18.545Z,225
2017-04-15T05:44:31.070Z,220
2017-04-15T05:45:43.314Z,220
2017-04-15T05:46:55.494Z,215
2017-04-15T05:48:07.738Z,210
2017-04-15T05:49:20.280Z,210
2017-04-15T05:50:32.849Z,215
2017-04-15T05:51:45.379Z,230
2017-04-15T05:52:57.900Z,245
2017-04-15T05:54:10.438Z,265
2017-04-15T05:55:22.980Z,280
2017-04-15T05:56:35.488Z,305
2017-04-15T05:57:48.034Z,335
2017-04-15T05:59:00.572Z,360
2017-04-15T06:00:13.050Z,380
2017-04-15T06:01:25.578Z,395
2017-04-15T06:02:37.819Z,400
2017-04-15T06:03:50.502Z,390
2017-04-15T06:05:03.064Z,365
2017-04-15T06:06:15.579Z,340
2017-04-15T06:07:27.818Z,320
2017-04-15T06:08:40.343Z,310
2017-04-15T06:09:52.584Z,310
2017-04-15T06:11:05.412Z,315
2017-04-15T06:12:17.950Z,325
2017-04-15T06:13:30.472Z,325
2017-04-15T06:14:43.016Z,315
2017-04-15T06:15:55.572Z,290
2017-04-15T06:17:08.085Z,275
2017-04-15T06:18:20.610Z,270
2017-04-15T06:19:33.160Z,265
2017-04-15T06:20:45.705Z,260
2017-04-15T06:21:58.228Z,245
2017-04-15T06:23:10.802Z,230
2017-04-15T06:24:23.365Z,210
2017-04-15T06:25:36.206Z,200
2017-04-15T06:26:48.209Z,200
2017-04-15T06:28:00.777Z,195
2017-04-15T06:29:13.298Z,200
2017-04-15T06:30:25.840Z,205
2017-04-15T06:31:38.370Z,215
2017-04-15T06:32:50.907Z,225
2017-04-15T06:34:03.453Z,230
2017-04-15T06:35:15.995Z,230
2017-04-15T06:36:28.529Z,240
2017-04-15T06:37:40.799Z,245
2017-04-15T06:38:53.315Z,255
2017-04-15T06:40:05.857Z,265
2017-04-15T06:41:18.399Z,270
2017-04-15T06:42:30.903Z,275
2017-04-15T06:43:43.704Z,270
2017-04-15T06:44:56.245Z,265
2017-04-15T06:46:08.794Z,265
2017-04-15T06:47:21.079Z,270
2017-04-15T06:48:33.333Z,270
2017-04-15T06:49:46.049Z,270
2017-04-15T06:50:58.577Z,265
2017-04-15T06:52:10.842Z,260
2017-04-15T06:53:23.387Z,260
2017-04-15T06:54:35.942Z,265
2017-04-15T06:55:48.458Z,275
2017-04-15T06:57:00.962Z,275
2017-04-15T06:58:13.192Z,275
2017-04-15T06:59:25.706Z,290
2017-04-15T07:00:38.246Z,300
2017-04-15T07:01:50.788Z,325
2017-04-15T07:03:03.313Z,345
2017-04-15T07:04:15.548Z,375
2017-04-15T07:05:28.070Z,395
2017-04-15T07:06:40.627Z,390
2017-04-15T07:07:52.873Z,360
2017-04-15T07:09:05.563Z,325
2017-04-15T07:10:18.384Z,295
2017-04-15T07:11:31.155Z,270
2017-04-15T07:12:43.676Z,275
2017-04-15T07:13:56.226Z,295
2017-04-15T07:15:08.785Z,305
2017-04-15T07:16:21.318Z,340
2017-04-15T07:17:33.538Z,405
2017-04-15T07:18:46.090Z,480
2017-04-15T07:19:58.627Z,570
2017-04-15T07:21:11.418Z,645
2017-04-15T07:22:23.962Z,695
2017-04-15T07:23:36.517Z,705
2017-04-15T07:24:49.064Z,725
2017-04-15T07:26:01.589Z,650
2017-04-15T07:27:14.123Z,570
2017-04-15T07:28:26.665Z,560
2017-04-15T07:29:39.437Z,540
2017-04-15T07:30:51.989Z,450
2017-04-15T07:32:04.456Z,395
2017-04-15T07:33:16.981Z,375
2017-04-15T07:34:29.505Z,340
2017-04-15T07:35:42.052Z,320
2017-04-15T07:36:54.274Z,375
2017-04-15T07:38:06.814Z,445
2017-04-15T07:39:19.336Z,495
2017-04-15T07:40:31.878Z,595
2017-04-15T07:41:44.420Z,665
2017-04-15T07:42:56.951Z,670
2017-04-15T07:44:09.516Z,580
2017-04-15T07:45:22.045Z,545
2017-04-15T07:46:34.289Z,510
2017-04-15T07:47:46.825Z,410
2017-04-15T07:48:59.624Z,400
2017-04-15T07:50:11.848Z,405
2017-04-15T07:51:24.173Z,400
2017-04-15T07:52:36.746Z,410
2017-04-15T07:53:48.988Z,370
2017-04-15T07:55:01.509Z,335
2017-04-15T07:56:13.424Z,325
2017-04-15T07:57:25.952Z,280
2017-04-15T07:58:38.213Z,310
2017-04-15T07:59:50.670Z,410
2017-04-15T08:01:03.187Z,355
2017-04-15T08:02:15.733Z,285
2017-04-15T08:03:28.254Z,260
2017-04-15T08:04:40.775Z,235
2017-04-15T08:05:53.324Z,190
2017-04-15T08:07:05.843Z,205
2017-04-15T08:08:18.055Z,220
2017-04-15T08:09:30.688Z,230
2017-04-15T08:10:43.480Z,260
2017-04-15T08:11:55.728Z,270
2017-04-15T08:13:08.271Z,270
2017-04-15T08:14:20.795Z,275
2017-04-15T08:15:33.335Z,330
2017-04-15T08:16:45.887Z,345
2017-04-15T08:17:58.433Z,305
2017-04-15T08:19:10.693Z,285
2017-04-15T08:20:22.940Z,305
2017-04-15T08:21:35.717Z,300
2017-04-15T08:22:48.268Z,315
2017-04-15T08:24:00.805Z,315
2017-04-15T08:25:13.323Z,280
2017-04-15T08:26:25.851Z,315
2017-04-15T08:27:38.394Z,350
2017-04-15T08:28:50.917Z,360
2017-04-15T08:30:03.593Z,320
2017-04-15T08:31:15.815Z,300
2017-04-15T08:32:28.332Z,375
2017-04-15T08:33:40.577Z,525
2017-04-15T08:34:53.115Z,735
2017-04-15T08:36:05.620Z,790
2017-04-15T08:37:17.857Z,585
2017-04-15T08:38:30.390Z,500
2017-04-15T08:39:42.948Z,515
2017-04-15T08:40:55.169Z,540
2017-04-15T08:42:07.702Z,555
2017-04-15T08:43:20.486Z,470
2017-04-15T08:44:33.021Z,475
2017-04-15T08:45:45.564Z,385
2017-04-15T08:46:58.111Z,455
2017-04-15T08:48:10.645Z,500
2017-04-15T08:49:23.297Z,420
2017-04-15T08:50:35.837Z,380
2017-04-15T08:51:48.410Z,435
2017-04-15T08:53:00.953Z,520
2017-04-15T08:54:13.499Z,535
2017-04-15T08:55:25.748Z,645
2017-04-15T08:56:38.274Z,745
2017-04-15T08:57:50.816Z,725
2017-04-15T08:59:03.591Z,710
2017-04-15T09:00:15.833Z,715
2017-04-15T09:01:28.379Z,520
2017-04-15T09:02:40.609Z,615
2017-04-15T09:03:53.149Z,560
2017-04-15T09:05:05.693Z,615
2017-04-15T09:06:18.237Z,680
2017-04-15T09:07:30.779Z,440
2017-04-15T09:08:43.525Z,455
2017-04-15T09:09:56.157Z,620
2017-04-15T09:11:08.677Z,670
2017-04-15T09:12:21.215Z,520
2017-04-15T09:13:33.745Z,355
2017-04-15T09:14:46.305Z,350
2017-04-15T09:15:58.833Z,485
2017-04-15T09:17:11.053Z,485
2017-04-15T09:18:23.281Z,355
2017-04-15T09:19:35.839Z,250
2017-04-15T09:20:48.371Z,210
2017-04-15T09:22:00.913Z,270
2017-04-15T09:23:13.129Z,440
2017-04-15T09:24:25.361Z,405
2017-04-15T09:25:37.876Z,395
2017-04-15T09:26:50.739Z,510
2017-04-15T09:28:03.271Z,465
2017-04-15T09:29:15.806Z,305
2017-04-15T09:30:28.340Z,265
2017-04-15T09:31:40.905Z,425
2017-04-15T09:32:53.127Z,420
2017-04-15T09:34:05.630Z,465
2017-04-15T09:35:18.171Z,575
2017-04-15T09:36:30.716Z,580
2017-04-15T09:37:43.239Z,445
2017-04-15T09:38:55.801Z,475
2017-04-15T09:40:08.351Z,270
2017-04-15T09:41:20.572Z,245
2017-04-15T09:42:33.099Z,310
2017-04-15T09:43:45.643Z,625
2017-04-15T09:44:58.281Z,560
2017-04-15T09:46:10.923Z,415
2017-04-15T09:47:23.455Z,295
2017-04-15T09:48:36.294Z,320
2017-04-15T09:49:48.544Z,255
2017-04-15T09:51:01.065Z,300
2017-04-15T09:52:13.578Z,370
2017-04-15T09:53:26.115Z,380
2017-04-15T09:54:38.632Z,340
2017-04-15T09:55:51.177Z,300
2017-04-15T09:57:03.696Z,450
2017-04-15T09:58:15.317Z,570
2017-04-15T09:59:28.083Z,545
2017-04-15T10:00:40.303Z,410
2017-04-15T10:01:52.829Z,330
2017-04-15T10:03:05.374Z,245
2017-04-15T10:04:17.395Z,240
2017-04-15T10:05:29.896Z,255
2017-04-15T10:06:42.452Z,335
2017-04-15T10:07:54.657Z,330
2017-04-15T10:09:07.181Z,270
2017-04-15T10:10:19.707Z,265
2017-04-15T10:11:32.245Z,290
2017-04-15T10:12:44.784Z,405
2017-04-15T10:13:57.314Z,410
2017-04-15T10:15:09.528Z,360
2017-04-15T10:16:22.083Z,390
2017-04-15T10:17:34.616Z,455
2017-04-15T10:18:47.146Z,365
2017-04-15T10:19:59.669Z,310
2017-04-15T10:21:12.191Z,620
2017-04-15T10:22:25.311Z,680
2017-04-15T10:23:38.200Z,590
2017-04-15T10:24:50.921Z,560
2017-04-15T10:26:03.446Z,535
2017-04-15T10:27:15.976Z,475
2017-04-15T10:28:28.531Z,400
2017-04-15T10:29:41.058Z,300
2017-04-15T10:30:53.579Z,275
2017-04-15T10:32:06.088Z,265
2017-04-15T10:33:18.646Z,305
2017-04-15T10:34:30.845Z,450
2017-04-15T10:35:43.081Z,435
2017-04-15T10:36:55.609Z,375
2017-04-15T10:38:08.134Z,325
2017-04-15T10:39:20.355Z,280
2017-04-15T10:40:32.624Z,340
2017-04-15T10:41:45.171Z,370
2017-04-15T10:42:57.734Z,340
2017-04-15T10:44:10.439Z,290
2017-04-15T10:45:22.955Z,300
2017-04-15T10:46:35.496Z,280
2017-04-15T10:47:47.727Z,275
2017-04-15T10:48:59.965Z,400
2017-04-15T10:50:12.511Z,440
2017-04-15T10:51:25.039Z,340
2017-04-15T10:52:37.598Z,300
2017-04-15T10:53:50.119Z,260
2017-04-15T10:55:02.631Z,265
2017-04-15T10:56:14.862Z,265
2017-04-15T10:57:27.390Z,395
2017-04-15T10:58:39.953Z,630
2017-04-15T10:59:52.217Z,660
2017-04-15T11:01:04.754Z,740
2017-04-15T11:02:17.377Z,640
2017-04-15T11:03:29.922Z,650
2017-04-15T11:04:42.465Z,510
2017-04-15T11:05:54.965Z,535
2017-04-15T11:07:07.482Z,460
2017-04-15T11:08:20.006Z,405
2017-04-15T11:09:32.529Z,340
2017-04-15T11:10:45.062Z,330
2017-04-15T11:11:57.592Z,350
2017-04-15T11:13:10.114Z,365
2017-04-15T11:14:22.657Z,325
2017-04-15T11:15:35.205Z,275
2017-04-15T11:16:47.433Z,285
2017-04-15T11:18:00.000Z,290
2017-04-15T11:19:12.576Z,265
2017-04-15T11:20:25.128Z,280
2017-04-15T11:21:37.853Z,310
2017-04-15T11:22:50.054Z,295
2017-04-15T11:24:02.578Z,255
2017-04-15T11:25:15.126Z,225
2017-04-15T11:26:27.666Z,230
2017-04-15T11:27:40.217Z,195
2017-04-15T11:28:52.754Z,185
2017-04-15T11:30:04.978Z,210
2017-04-15T11:31:17.203Z,175
2017-04-15T11:32:29.725Z,165
2017-04-15T11:33:42.270Z,195
2017-04-15T11:34:54.762Z,235
2017-04-15T11:36:07.286Z,175
2017-04-15T11:37:19.233Z,265
2017-04-15T11:38:31.747Z,310
2017-04-15T11:39:44.249Z,375
2017-04-15T11:40:56.839Z,280
2017-04-15T11:42:09.443Z,165
2017-04-15T11:43:21.784Z,180
2017-04-15T11:44:34.048Z,265
2017-04-15T11:45:46.579Z,235
2017-04-15T11:46:59.088Z,330
2017-04-15T11:48:11.312Z,440
2017-04-15T11:49:23.534Z,530
2017-04-15T11:50:36.080Z,430
2017-04-15T11:51:48.651Z,385
2017-04-15T11:53:01.426Z,395
2017-04-15T11:54:13.952Z,475
2017-04-15T11:55:26.493Z,395
2017-04-15T11:56:39.010Z,340
2017-04-15T11:57:51.564Z,410
2017-04-15T11:59:04.126Z,465
2017-04-15T12:00:16.357Z,460
2017-04-15T12:01:29.151Z,520
2017-04-15T12:02:41.686Z,645
2017-04-15T12:03:54.269Z,510
2017-04-15T12:05:06.785Z,415
2017-04-15T12:06:19.324Z,475
2017-04-15T12:07:31.852Z,615
2017-04-15T12:08:44.373Z,575
2017-04-15T12:09:56.894Z,595
2017-04-15T12:11:09.423Z,670
2017-04-15T12:12:21.645Z,760
2017-04-15T12:13:34.158Z,820
2017-04-15T12:14:46.671Z,750
2017-04-15T12:15:59.224Z,610
2017-04-15T12:17:10.524Z,590
2017-04-15T12:18:22.447Z,675
2017-04-15T12:19:35.014Z,945
2017-04-15T12:20:47.757Z,965
2017-04-15T12:22:00.308Z,1165
2017-04-15T12:23:12.852Z,1185
2017-04-15T12:24:25.051Z,1225
2017-04-15T12:25:37.570Z,1115
2017-04-15T12:26:50.133Z,1210
2017-04-15T12:28:02.662Z,750
2017-04-15T12:29:15.207Z,710
2017-04-15T12:30:27.699Z,790
2017-04-15T12:31:40.251Z,800
2017-04-15T12:32:52.796Z,675
2017-04-15T12:34:05.314Z,645
2017-04-15T12:35:17.854Z,735
2017-04-15T12:36:29.779Z,555
2017-04-15T12:37:41.404Z,495
2017-04-15T12:38:53.330Z,735
2017-04-15T12:40:05.567Z,520
2017-04-15T12:41:17.834Z,665
2017-04-15T12:42:30.662Z,425
2017-04-15T12:43:43.179Z,290
2017-04-15T12:44:55.721Z,285
2017-04-15T12:46:08.251Z,310
2017-04-15T12:47:19.596Z,365
2017-04-15T12:48:31.818Z,395
2017-04-15T12:49:44.081Z,505
2017-04-15T12:50:56.635Z,470
2017-04-15T12:52:09.205Z,625
2017-04-15T12:53:21.453Z,665
2017-04-15T12:54:34.039Z,600
2017-04-15T12:55:46.567Z,565
2017-04-15T12:56:59.089Z,305
2017-04-15T12:58:11.327Z,90
2017-04-15T12:59:24.079Z,195
2017-04-15T13:00:36.700Z,270
2017-04-15T13:01:49.222Z,225
2017-04-15T13:03:01.764Z,185
2017-04-15T13:04:14.306Z,210
2017-04-15T13:05:26.531Z,195
2017-04-15T13:06:39.052Z,345
2017-04-15T13:07:51.573Z,395
2017-04-15T13:09:04.074Z,475
2017-04-15T13:10:16.635Z,495
2017-04-15T13:11:28.540Z,400
2017-04-15T13:12:41.057Z,380
2017-04-15T13:13:53.577Z,310
2017-04-15T13:15:06.126Z,390
2017-04-15T13:16:18.660Z,565
2017-04-15T13:17:30.890Z,850
2017-04-15T13:18:43.162Z,1185
2017-04-15T13:19:55.699Z,1050
2017-04-15T13:21:08.232Z,1135
2017-04-15T13:22:20.853Z,980
2017-04-15T13:23:33.375Z,825
2017-04-15T13:24:45.916Z,670
2017-04-15T13:25:58.450Z,550
2017-04-15T13:27:10.979Z,685
2017-04-15T13:28:23.521Z,760
2017-04-15T13:29:36.066Z,635
2017-04-15T13:30:48.591Z,430
2017-04-15T13:32:01.109Z,330
2017-04-15T13:33:13.642Z,345
2017-04-15T13:34:26.188Z,365
2017-04-15T13:35:38.729Z,365
2017-04-15T13:36:51.275Z,320
2017-04-15T13:38:03.796Z,295
2017-04-15T13:39:16.335Z,320
2017-04-15T13:40:28.970Z,315
2017-04-15T13:41:40.975Z,325
2017-04-15T13:42:53.509Z,440
2017-04-15T13:44:06.055Z,540
2017-04-15T13:45:18.574Z,550
2017-04-15T13:46:31.095Z,510
2017-04-15T13:47:43.639Z,430
2017-04-15T13:48:55.860Z,395
2017-04-15T13:50:08.080Z,395
2017-04-15T13:51:20.622Z,360
2017-04-15T13:52:33.168Z,380
2017-04-15T13:53:45.697Z,480
2017-04-15T13:54:58.256Z,545
2017-04-15T13:56:10.830Z,485
2017-04-15T13:57:23.386Z,400
2017-04-15T13:58:36.147Z,285
2017-04-15T13:59:48.951Z,240
2017-04-15T14:01:01.443Z,230
2017-04-15T14:02:13.956Z,225
2017-04-15T14:03:26.479Z,250
2017-04-15T14:04:39.023Z,235
2017-04-15T14:05:51.556Z,235
2017-04-15T14:07:04.102Z,225
2017-04-15T14:08:16.599Z,235
2017-04-15T14:09:29.393Z,290
2017-04-15T14:10:41.887Z,325
2017-04-15T14:11:54.427Z,340
2017-04-15T14:13:06.689Z,375
2017-04-15T14:14:19.225Z,440
2017-04-15T14:15:31.814Z,505
2017-04-15T14:16:44.644Z,630
2017-04-15T14:17:57.178Z,715
2017-04-15T14:19:09.729Z,820
2017-04-15T14:20:22.210Z,870
2017-04-15T14:21:34.748Z,880
2017-04-15T14:22:47.245Z,890
2017-04-15T14:23:59.766Z,905
2017-04-15T14:25:12.006Z,910
2017-04-15T14:26:24.535Z,910
2017-04-15T14:27:37.053Z,905
2017-04-15T14:28:49.591Z,910
2017-04-15T14:30:01.840Z,910
2017-04-15T14:31:14.387Z,900
2017-04-15T14:32:26.928Z,885
2017-04-15T14:33:39.475Z,840
2017-04-15T14:34:52.080Z,815
2017-04-15T14:36:04.745Z,800
2017-04-15T14:37:17.337Z,780
2017-04-15T14:38:29.573Z,795
2017-04-15T14:39:42.093Z,765
2017-04-15T14:40:54.637Z,730
2017-04-15T14:42:07.150Z,715
2017-04-15T14:43:19.695Z,585
2017-04-15T14:44:32.237Z,365
2017-04-15T14:45:44.473Z,205
2017-04-15T14:46:57.012Z,180
2017-04-15T14:48:09.563Z,430
2017-04-15T14:49:22.100Z,610
2017-04-15T14:50:34.718Z,690
2017-04-15T14:51:47.250Z,645
2017-04-15T14:52:59.841Z,620
2017-04-15T14:54:12.364Z,575
2017-04-15T14:55:24.882Z,560
2017-04-15T14:56:37.121Z,555
2017-04-15T14:57:49.697Z,535
2017-04-15T14:59:02.228Z,550
2017-04-15T15:00:14.485Z,565
2017-04-15T15:01:26.704Z,595
2017-04-15T15:02:38.985Z,620
2017-04-15T15:03:51.773Z,640
2017-04-15T15:05:04.319Z,660
2017-04-15T15:06:16.847Z,680
2017-04-15T15:07:29.388Z,650
2017-04-15T15:08:41.618Z,620
2017-04-15T15:09:54.188Z,610
2017-04-15T15:11:06.759Z,590
2017-04-15T15:12:19.287Z,585
2017-04-15T15:13:31.523Z,600
2017-04-15T15:14:44.073Z,600
2017-04-15T15:15:56.632Z,610
2017-04-15T15:17:08.885Z,615
2017-04-15T15:18:21.436Z,610
2017-04-15T15:19:33.946Z,590
2017-04-15T15:20:46.481Z,570
2017-04-15T15:21:58.723Z,555
2017-04-15T15:23:11.265Z,550
2017-04-15T15:24:23.792Z,550
2017-04-15T15:25:36.327Z,560
2017-04-15T15:26:48.670Z,575
2017-04-15T15:28:01.319Z,570
2017-04-15T15:29:13.823Z,555
2017-04-15T15:30:26.343Z,605
2017-04-15T15:31:38.864Z,615
2017-04-15T15:32:51.408Z,525
2017-04-15T15:34:03.932Z,440
2017-04-15T15:35:16.174Z,450
2017-04-15T15:36:28.720Z,485
2017-04-15T15:37:41.247Z,425
2017-04-15T15:38:53.768Z,410
2017-04-15T15:40:06.317Z,445
2017-04-15T15:41:18.873Z,380
2017-04-15T15:42:30.804Z,395
2017-04-15T15:43:43.300Z,395
2017-04-15T15:44:55.837Z,390
2017-04-15T15:46:08.161Z,345
2017-04-15T15:47:20.386Z,345
2017-04-15T15:48:32.635Z,425
2017-04-15T15:49:45.183Z,415
2017-04-15T15:50:57.720Z,370
2017-04-15T15:52:10.244Z,385
2017-04-15T15:53:22.787Z,405
2017-04-15T15:54:35.301Z,345
2017-04-15T15:55:47.245Z,320
2017-04-15T15:56:59.502Z,330
2017-04-15T15:58:11.749Z,350
2017-04-15T15:59:24.317Z,330
2017-04-15T16:00:36.873Z,340
2017-04-15T16:01:49.461Z,355
2017-04-15T16:03:02.000Z,375
2017-04-15T16:04:14.249Z,390
2017-04-15T16:05:26.773Z,400
2017-04-15T16:06:39.017Z,400
2017-04-15T16:07:51.541Z,400
2017-04-15T16:09:04.088Z,390
2017-04-15T16:10:16.633Z,385
2017-04-15T16:11:29.156Z,375
2017-04-15T16:12:41.705Z,370
2017-04-15T16:13:54.244Z,370
2017-04-15T16:15:06.755Z,370
2017-04-15T16:16:18.985Z,375
2017-04-15T16:17:31.205Z,375
2017-04-15T16:18:44.097Z,375
2017-04-15T16:19:56.872Z,370
2017-04-15T16:21:09.396Z,365
2017-04-15T16:22:21.941Z,355
2017-04-15T16:23:34.481Z,345
2017-04-15T16:24:47.011Z,340
2017-04-15T16:25:59.552Z,330
2017-04-15T16:27:12.051Z,325
2017-04-15T16:28:24.572Z,325
2017-04-15T16:29:36.817Z,320
2017-04-15T16:30:49.039Z,315
2017-04-15T16:32:01.549Z,310
2017-04-15T16:33:14.103Z,300
2017-04-15T16:34:26.929Z,290
2017-04-15T16:35:39.451Z,275
2017-04-15T16:36:51.993Z,265
2017-04-15T16:38:04.531Z,260
2017-04-15T16:39:17.104Z,260
2017-04-15T16:40:29.627Z,260
2017-04-15T16:41:41.523Z,255
2017-04-15T16:42:54.062Z,255
2017-04-15T16:44:06.594Z,255
2017-04-15T16:45:19.162Z,255
2017-04-15T16:46:31.688Z,255
2017-04-15T16:47:44.353Z,250
2017-04-15T16:48:56.955Z,255
2017-04-15T16:50:09.474Z,245
2017-04-15T16:51:21.991Z,240
2017-04-15T16:52:34.531Z,240
2017-04-15T16:53:47.083Z,240
2017-04-15T16:54:59.606Z,240